sensor_id;sensor_type;location;lat;lon;timestamp;temperature;humidity
30520;DHT22;17300;50.374;8.006;2022-08-18T00:00:06;24.40;50.90
30520;DHT22;17300;50.374;8.006;2022-08-18T00:02:34;24.40;51.20
30520;DHT22;17300;50.374;8.006;2022-08-18T00:05:04;24.30;51.00
30520;DHT22;17300;50.374;8.006;2022-08-18T00:07:31;24.30;51.10
30520;DHT22;17300;50.374;8.006;2022-08-18T00:09:59;24.30;51.80
30520;DHT22;17300;50.374;8.006;2022-08-18T00:12:29;24.30;51.20
30520;DHT22;17300;50.374;8.006;2022-08-18T00:14:57;24.20;51.30
30520;DHT22;17300;50.374;8.006;2022-08-18T00:17:30;24.30;51.30
30520;DHT22;17300;50.374;8.006;2022-08-18T00:19:57;24.20;51.40
30520;DHT22;17300;50.374;8.006;2022-08-18T00:22:24;24.20;51.40
30520;DHT22;17300;50.374;8.006;2022-08-18T00:24:53;24.10;51.40
30520;DHT22;17300;50.374;8.006;2022-08-18T00:27:22;24.10;51.50
30520;DHT22;17300;50.374;8.006;2022-08-18T00:29:51;24.10;51.60
30520;DHT22;17300;50.374;8.006;2022-08-18T00:32:21;24.00;51.60
30520;DHT22;17300;50.374;8.006;2022-08-18T00:34:49;23.90;51.60
30520;DHT22;17300;50.374;8.006;2022-08-18T00:37:17;24.00;51.70
30520;DHT22;17300;50.374;8.006;2022-08-18T00:39:43;23.90;51.70
30520;DHT22;17300;50.374;8.006;2022-08-18T00:42:12;23.90;52.40
30520;DHT22;17300;50.374;8.006;2022-08-18T00:44:39;23.80;51.80
30520;DHT22;17300;50.374;8.006;2022-08-18T00:47:06;23.80;51.90
30520;DHT22;17300;50.374;8.006;2022-08-18T00:49:33;23.80;51.90
30520;DHT22;17300;50.374;8.006;2022-08-18T00:52:02;23.70;52.00
30520;DHT22;17300;50.374;8.006;2022-08-18T00:54:32;23.70;52.20
30520;DHT22;17300;50.374;8.006;2022-08-18T00:57:04;23.70;52.20
30520;DHT22;17300;50.374;8.006;2022-08-18T00:59:36;23.60;52.20
30520;DHT22;17300;50.374;8.006;2022-08-18T01:02:11;23.50;52.40
30520;DHT22;17300;50.374;8.006;2022-08-18T01:04:44;23.50;52.60
30520;DHT22;17300;50.374;8.006;2022-08-18T01:07:20;23.50;52.50
30520;DHT22;17300;50.374;8.006;2022-08-18T01:09:47;23.50;52.80
30520;DHT22;17300;50.374;8.006;2022-08-18T01:12:15;23.40;52.60
30520;DHT22;17300;50.374;8.006;2022-08-18T01:14:42;23.40;52.70
30520;DHT22;17300;50.374;8.006;2022-08-18T01:17:08;23.40;53.40
30520;DHT22;17300;50.374;8.006;2022-08-18T01:19:53;23.40;52.90
30520;DHT22;17300;50.374;8.006;2022-08-18T01:22:49;23.40;53.00
30520;DHT22;17300;50.374;8.006;2022-08-18T01:25:18;23.40;53.20
30520;DHT22;17300;50.374;8.006;2022-08-18T01:28:04;23.40;53.00
30520;DHT22;17300;50.374;8.006;2022-08-18T01:30:43;23.50;53.10
30520;DHT22;17300;50.374;8.006;2022-08-18T01:33:10;23.40;53.20
30520;DHT22;17300;50.374;8.006;2022-08-18T01:35:39;23.50;53.20
30520;DHT22;17300;50.374;8.006;2022-08-18T01:38:08;23.40;53.30
30520;DHT22;17300;50.374;8.006;2022-08-18T01:40:38;23.50;53.30
30520;DHT22;17300;50.374;8.006;2022-08-18T01:43:04;23.50;53.20
30520;DHT22;17300;50.374;8.006;2022-08-18T01:45:31;23.50;53.30
30520;DHT22;17300;50.374;8.006;2022-08-18T01:47:59;23.40;53.30
30520;DHT22;17300;50.374;8.006;2022-08-18T01:50:26;23.40;53.40
30520;DHT22;17300;50.374;8.006;2022-08-18T01:52:52;23.50;53.50
30520;DHT22;17300;50.374;8.006;2022-08-18T01:55:20;23.40;53.40
30520;DHT22;17300;50.374;8.006;2022-08-18T01:57:48;23.40;53.50
30520;DHT22;17300;50.374;8.006;2022-08-18T02:00:16;23.40;53.50
30520;DHT22;17300;50.374;8.006;2022-08-18T02:02:44;23.40;53.60
30520;DHT22;17300;50.374;8.006;2022-08-18T02:05:16;23.40;53.50
30520;DHT22;17300;50.374;8.006;2022-08-18T02:07:43;23.50;53.70
30520;DHT22;17300;50.374;8.006;2022-08-18T02:10:10;23.40;53.60
30520;DHT22;17300;50.374;8.006;2022-08-18T02:12:39;23.40;53.70
30520;DHT22;17300;50.374;8.006;2022-08-18T02:15:07;23.40;53.80
30520;DHT22;17300;50.374;8.006;2022-08-18T02:17:36;23.40;53.80
30520;DHT22;17300;50.374;8.006;2022-08-18T02:20:04;23.40;53.90
30520;DHT22;17300;50.374;8.006;2022-08-18T02:22:32;23.40;53.80
30520;DHT22;17300;50.374;8.006;2022-08-18T02:24:59;23.50;53.90
30520;DHT22;17300;50.374;8.006;2022-08-18T02:27:26;23.50;54.00
30520;DHT22;17300;50.374;8.006;2022-08-18T02:29:55;23.50;54.00
30520;DHT22;17300;50.374;8.006;2022-08-18T02:32:21;23.40;53.90
30520;DHT22;17300;50.374;8.006;2022-08-18T02:34:48;23.50;54.00
30520;DHT22;17300;50.374;8.006;2022-08-18T02:37:15;23.50;54.00
30520;DHT22;17300;50.374;8.006;2022-08-18T02:39:42;23.50;54.00
30520;DHT22;17300;50.374;8.006;2022-08-18T02:42:08;23.50;54.00
30520;DHT22;17300;50.374;8.006;2022-08-18T02:44:39;23.50;54.00
30520;DHT22;17300;50.374;8.006;2022-08-18T02:47:07;23.50;54.10
30520;DHT22;17300;50.374;8.006;2022-08-18T02:49:33;23.50;54.20
30520;DHT22;17300;50.374;8.006;2022-08-18T02:52:02;23.50;54.20
30520;DHT22;17300;50.374;8.006;2022-08-18T02:54:29;23.50;54.20
30520;DHT22;17300;50.374;8.006;2022-08-18T02:56:56;23.50;54.20
30520;DHT22;17300;50.374;8.006;2022-08-18T02:59:24;23.40;54.20
30520;DHT22;17300;50.374;8.006;2022-08-18T03:01:53;23.50;54.40
30520;DHT22;17300;50.374;8.006;2022-08-18T03:04:27;23.50;54.40
30520;DHT22;17300;50.374;8.006;2022-08-18T03:06:54;23.50;54.60
30520;DHT22;17300;50.374;8.006;2022-08-18T03:09:21;23.50;54.40
30520;DHT22;17300;50.374;8.006;2022-08-18T03:11:48;23.50;54.40
30520;DHT22;17300;50.374;8.006;2022-08-18T03:14:15;23.50;54.40
30520;DHT22;17300;50.374;8.006;2022-08-18T03:16:44;23.50;54.40
30520;DHT22;17300;50.374;8.006;2022-08-18T03:19:11;23.50;54.50
30520;DHT22;17300;50.374;8.006;2022-08-18T03:21:41;23.50;54.40
30520;DHT22;17300;50.374;8.006;2022-08-18T03:24:09;23.60;54.60
30520;DHT22;17300;50.374;8.006;2022-08-18T03:26:40;23.60;54.50
30520;DHT22;17300;50.374;8.006;2022-08-18T03:29:07;23.50;54.60
30520;DHT22;17300;50.374;8.006;2022-08-18T03:31:35;23.60;54.50
30520;DHT22;17300;50.374;8.006;2022-08-18T03:34:05;23.60;54.60
30520;DHT22;17300;50.374;8.006;2022-08-18T03:36:33;23.60;54.80
30520;DHT22;17300;50.374;8.006;2022-08-18T03:39:04;23.70;54.80
30520;DHT22;17300;50.374;8.006;2022-08-18T03:41:31;23.60;54.80
30520;DHT22;17300;50.374;8.006;2022-08-18T03:43:58;23.70;54.70
30520;DHT22;17300;50.374;8.006;2022-08-18T03:46:26;23.70;54.80
30520;DHT22;17300;50.374;8.006;2022-08-18T03:48:56;23.70;54.80
30520;DHT22;17300;50.374;8.006;2022-08-18T03:51:25;23.70;54.90
30520;DHT22;17300;50.374;8.006;2022-08-18T03:53:53;23.70;54.80
30520;DHT22;17300;50.374;8.006;2022-08-18T03:56:24;23.80;54.80
30520;DHT22;17300;50.374;8.006;2022-08-18T03:58:55;23.70;54.80
30520;DHT22;17300;50.374;8.006;2022-08-18T04:01:24;23.70;54.70
30520;DHT22;17300;50.374;8.006;2022-08-18T04:03:53;23.70;54.70
30520;DHT22;17300;50.374;8.006;2022-08-18T04:06:23;23.80;54.70
30520;DHT22;17300;50.374;8.006;2022-08-18T04:08:51;23.80;54.70
30520;DHT22;17300;50.374;8.006;2022-08-18T04:11:18;23.80;54.60
30520;DHT22;17300;50.374;8.006;2022-08-18T04:13:46;23.80;54.60
30520;DHT22;17300;50.374;8.006;2022-08-18T04:16:13;23.80;54.60
30520;DHT22;17300;50.374;8.006;2022-08-18T04:18:40;23.80;54.70
30520;DHT22;17300;50.374;8.006;2022-08-18T04:21:09;23.80;54.60
30520;DHT22;17300;50.374;8.006;2022-08-18T04:23:38;23.80;54.60
30520;DHT22;17300;50.374;8.006;2022-08-18T04:26:07;23.80;54.70
30520;DHT22;17300;50.374;8.006;2022-08-18T04:28:34;23.80;54.60
30520;DHT22;17300;50.374;8.006;2022-08-18T04:31:07;23.80;54.60
30520;DHT22;17300;50.374;8.006;2022-08-18T04:33:35;23.80;54.90
30520;DHT22;17300;50.374;8.006;2022-08-18T04:36:06;23.80;54.60
30520;DHT22;17300;50.374;8.006;2022-08-18T04:38:34;23.80;54.80
30520;DHT22;17300;50.374;8.006;2022-08-18T04:41:01;23.80;54.60
30520;DHT22;17300;50.374;8.006;2022-08-18T04:43:28;23.80;54.60
30520;DHT22;17300;50.374;8.006;2022-08-18T04:45:55;23.80;54.70
30520;DHT22;17300;50.374;8.006;2022-08-18T04:48:28;23.80;54.70
30520;DHT22;17300;50.374;8.006;2022-08-18T04:51:01;23.80;54.90
30520;DHT22;17300;50.374;8.006;2022-08-18T04:53:28;23.70;54.70
30520;DHT22;17300;50.374;8.006;2022-08-18T04:56:14;23.80;54.80
30520;DHT22;17300;50.374;8.006;2022-08-18T04:58:43;23.70;54.80
30520;DHT22;17300;50.374;8.006;2022-08-18T05:01:10;23.80;54.80
30520;DHT22;17300;50.374;8.006;2022-08-18T05:03:38;23.70;54.80
30520;DHT22;17300;50.374;8.006;2022-08-18T05:06:06;23.70;55.00
30520;DHT22;17300;50.374;8.006;2022-08-18T05:08:33;23.80;55.00
30520;DHT22;17300;50.374;8.006;2022-08-18T05:10:59;23.80;55.10
30520;DHT22;17300;50.374;8.006;2022-08-18T05:13:26;23.80;55.10
30520;DHT22;17300;50.374;8.006;2022-08-18T05:15:53;23.80;55.20
30520;DHT22;17300;50.374;8.006;2022-08-18T05:18:21;23.80;55.30
30520;DHT22;17300;50.374;8.006;2022-08-18T05:20:50;23.80;55.30
30520;DHT22;17300;50.374;8.006;2022-08-18T05:23:17;23.80;55.40
30520;DHT22;17300;50.374;8.006;2022-08-18T05:25:44;23.90;55.40
30520;DHT22;17300;50.374;8.006;2022-08-18T05:28:12;23.90;55.40
30520;DHT22;17300;50.374;8.006;2022-08-18T05:30:39;23.90;55.40
30520;DHT22;17300;50.374;8.006;2022-08-18T05:33:07;24.00;55.40
30520;DHT22;17300;50.374;8.006;2022-08-18T05:35:44;24.00;55.50
30520;DHT22;17300;50.374;8.006;2022-08-18T05:38:24;24.00;55.50
30520;DHT22;17300;50.374;8.006;2022-08-18T05:41:04;24.10;55.80
30520;DHT22;17300;50.374;8.006;2022-08-18T05:43:32;24.10;55.60
30520;DHT22;17300;50.374;8.006;2022-08-18T05:46:00;24.20;55.50
30520;DHT22;17300;50.374;8.006;2022-08-18T05:48:29;24.20;55.50
30520;DHT22;17300;50.374;8.006;2022-08-18T05:50:57;24.20;55.40
30520;DHT22;17300;50.374;8.006;2022-08-18T05:53:26;24.20;55.30
30520;DHT22;17300;50.374;8.006;2022-08-18T05:56:25;24.30;55.20
30520;DHT22;17300;50.374;8.006;2022-08-18T05:59:14;24.30;55.20
30520;DHT22;17300;50.374;8.006;2022-08-18T06:01:44;24.30;55.00
30520;DHT22;17300;50.374;8.006;2022-08-18T06:04:21;24.30;55.00
30520;DHT22;17300;50.374;8.006;2022-08-18T06:06:49;24.30;55.00
30520;DHT22;17300;50.374;8.006;2022-08-18T06:09:22;24.40;55.10
30520;DHT22;17300;50.374;8.006;2022-08-18T06:11:50;24.30;55.10
30520;DHT22;17300;50.374;8.006;2022-08-18T06:14:18;24.30;55.10
30520;DHT22;17300;50.374;8.006;2022-08-18T06:16:54;24.40;55.10
30520;DHT22;17300;50.374;8.006;2022-08-18T06:19:33;24.40;55.40
30520;DHT22;17300;50.374;8.006;2022-08-18T06:22:12;24.50;55.40
30520;DHT22;17300;50.374;8.006;2022-08-18T06:24:47;24.50;55.40
30520;DHT22;17300;50.374;8.006;2022-08-18T06:27:21;24.50;55.40
30520;DHT22;17300;50.374;8.006;2022-08-18T06:30:02;24.50;55.50
30520;DHT22;17300;50.374;8.006;2022-08-18T06:32:45;24.60;55.60
30520;DHT22;17300;50.374;8.006;2022-08-18T06:35:24;24.60;55.50
30520;DHT22;17300;50.374;8.006;2022-08-18T06:38:01;24.70;55.60
30520;DHT22;17300;50.374;8.006;2022-08-18T06:40:55;24.70;55.60
30520;DHT22;17300;50.374;8.006;2022-08-18T06:43:25;24.80;55.40
30520;DHT22;17300;50.374;8.006;2022-08-18T06:45:53;24.90;55.50
30520;DHT22;17300;50.374;8.006;2022-08-18T06:48:24;24.90;55.50
30520;DHT22;17300;50.374;8.006;2022-08-18T06:50:56;25.00;55.60
30520;DHT22;17300;50.374;8.006;2022-08-18T06:53:54;25.10;55.40
30520;DHT22;17300;50.374;8.006;2022-08-18T06:56:26;25.20;55.30
30520;DHT22;17300;50.374;8.006;2022-08-18T06:58:54;25.20;55.10
30520;DHT22;17300;50.374;8.006;2022-08-18T07:01:38;25.20;55.00
30520;DHT22;17300;50.374;8.006;2022-08-18T07:04:05;25.20;54.90
30520;DHT22;17300;50.374;8.006;2022-08-18T07:06:32;25.30;54.90
30520;DHT22;17300;50.374;8.006;2022-08-18T07:09:17;25.30;54.90
30520;DHT22;17300;50.374;8.006;2022-08-18T07:12:02;25.30;54.80
30520;DHT22;17300;50.374;8.006;2022-08-18T07:14:29;25.30;55.40
30520;DHT22;17300;50.374;8.006;2022-08-18T07:17:06;25.40;54.80
30520;DHT22;17300;50.374;8.006;2022-08-18T07:19:33;25.30;54.80
30520;DHT22;17300;50.374;8.006;2022-08-18T07:22:03;25.40;54.70
30520;DHT22;17300;50.374;8.006;2022-08-18T07:24:32;25.40;54.90
30520;DHT22;17300;50.374;8.006;2022-08-18T07:27:06;25.40;54.80
30520;DHT22;17300;50.374;8.006;2022-08-18T07:29:35;25.40;54.90
30520;DHT22;17300;50.374;8.006;2022-08-18T07:32:07;25.40;54.80
30520;DHT22;17300;50.374;8.006;2022-08-18T07:34:39;25.40;54.90
30520;DHT22;17300;50.374;8.006;2022-08-18T07:37:09;25.40;54.80
30520;DHT22;17300;50.374;8.006;2022-08-18T07:39:43;25.40;54.80
30520;DHT22;17300;50.374;8.006;2022-08-18T07:42:18;25.40;54.90
30520;DHT22;17300;50.374;8.006;2022-08-18T07:44:52;25.40;54.90
30520;DHT22;17300;50.374;8.006;2022-08-18T07:47:24;25.40;54.90
30520;DHT22;17300;50.374;8.006;2022-08-18T07:49:53;25.40;54.90
30520;DHT22;17300;50.374;8.006;2022-08-18T07:52:25;25.40;55.40
30520;DHT22;17300;50.374;8.006;2022-08-18T07:55:03;25.40;55.40
30520;DHT22;17300;50.374;8.006;2022-08-18T07:57:42;25.40;54.80
30520;DHT22;17300;50.374;8.006;2022-08-18T08:00:23;25.40;54.90
30520;DHT22;17300;50.374;8.006;2022-08-18T08:02:57;25.40;54.90
30520;DHT22;17300;50.374;8.006;2022-08-18T08:05:38;25.40;54.80
30520;DHT22;17300;50.374;8.006;2022-08-18T08:08:15;25.40;55.00
30520;DHT22;17300;50.374;8.006;2022-08-18T08:10:51;25.40;55.00
30520;DHT22;17300;50.374;8.006;2022-08-18T08:13:33;25.40;55.00
30520;DHT22;17300;50.374;8.006;2022-08-18T08:16:09;25.50;55.00
30520;DHT22;17300;50.374;8.006;2022-08-18T08:18:42;25.50;54.90
30520;DHT22;17300;50.374;8.006;2022-08-18T08:21:15;25.40;54.70
30520;DHT22;17300;50.374;8.006;2022-08-18T08:23:48;25.50;54.80
30520;DHT22;17300;50.374;8.006;2022-08-18T08:26:35;25.50;55.00
30520;DHT22;17300;50.374;8.006;2022-08-18T08:29:14;25.50;55.00
30520;DHT22;17300;50.374;8.006;2022-08-18T08:31:48;25.60;55.00
30520;DHT22;17300;50.374;8.006;2022-08-18T08:34:21;25.60;54.90
30520;DHT22;17300;50.374;8.006;2022-08-18T08:36:56;25.60;54.90
30520;DHT22;17300;50.374;8.006;2022-08-18T08:39:26;25.60;54.90
30520;DHT22;17300;50.374;8.006;2022-08-18T08:41:58;25.60;54.90
30520;DHT22;17300;50.374;8.006;2022-08-18T08:44:33;25.80;55.20
30520;DHT22;17300;50.374;8.006;2022-08-18T08:47:03;25.80;55.40
30520;DHT22;17300;50.374;8.006;2022-08-18T08:49:34;25.80;55.40
30520;DHT22;17300;50.374;8.006;2022-08-18T08:52:06;25.90;55.90
30520;DHT22;17300;50.374;8.006;2022-08-18T08:54:43;25.90;55.70
30520;DHT22;17300;50.374;8.006;2022-08-18T08:57:13;26.00;55.90
30520;DHT22;17300;50.374;8.006;2022-08-18T08:59:43;26.10;55.90
30520;DHT22;17300;50.374;8.006;2022-08-18T09:02:25;26.20;56.00
30520;DHT22;17300;50.374;8.006;2022-08-18T09:05:02;26.30;56.30
30520;DHT22;17300;50.374;8.006;2022-08-18T09:07:43;26.40;56.20
30520;DHT22;17300;50.374;8.006;2022-08-18T09:10:44;26.60;56.30
30520;DHT22;17300;50.374;8.006;2022-08-18T09:13:29;26.70;55.90
30520;DHT22;17300;50.374;8.006;2022-08-18T09:16:12;26.90;56.10
30520;DHT22;17300;50.374;8.006;2022-08-18T09:18:51;27.00;56.10
30520;DHT22;17300;50.374;8.006;2022-08-18T09:21:30;27.30;55.90
30520;DHT22;17300;50.374;8.006;2022-08-18T09:24:11;27.40;55.90
30520;DHT22;17300;50.374;8.006;2022-08-18T09:26:48;27.60;55.80
30520;DHT22;17300;50.374;8.006;2022-08-18T09:29:23;27.80;55.30
30520;DHT22;17300;50.374;8.006;2022-08-18T09:32:30;28.00;55.10
30520;DHT22;17300;50.374;8.006;2022-08-18T09:35:12;28.20;54.40
30520;DHT22;17300;50.374;8.006;2022-08-18T09:37:48;28.40;54.30
30520;DHT22;17300;50.374;8.006;2022-08-18T09:40:45;28.50;54.10
30520;DHT22;17300;50.374;8.006;2022-08-18T09:43:36;28.60;54.20
30520;DHT22;17300;50.374;8.006;2022-08-18T09:46:05;28.70;53.70
30520;DHT22;17300;50.374;8.006;2022-08-18T09:48:34;28.80;53.00
30520;DHT22;17300;50.374;8.006;2022-08-18T09:51:31;28.90;52.80
30520;DHT22;17300;50.374;8.006;2022-08-18T09:54:19;29.00;52.40
30520;DHT22;17300;50.374;8.006;2022-08-18T09:57:15;29.10;52.10
30520;DHT22;17300;50.374;8.006;2022-08-18T10:03:10;29.30;52.10
30520;DHT22;17300;50.374;8.006;2022-08-18T10:05:54;29.40;51.80
30520;DHT22;17300;50.374;8.006;2022-08-18T10:11:52;29.50;51.30
30520;DHT22;17300;50.374;8.006;2022-08-18T10:17:41;29.70;51.30
30520;DHT22;17300;50.374;8.006;2022-08-18T10:20:20;29.80;51.10
30520;DHT22;17300;50.374;8.006;2022-08-18T10:22:51;29.90;51.00
30520;DHT22;17300;50.374;8.006;2022-08-18T10:25:32;30.00;50.90
30520;DHT22;17300;50.374;8.006;2022-08-18T10:27:59;30.10;50.20
30520;DHT22;17300;50.374;8.006;2022-08-18T10:31:02;30.20;50.40
30520;DHT22;17300;50.374;8.006;2022-08-18T10:33:58;30.20;49.80
30520;DHT22;17300;50.374;8.006;2022-08-18T10:36:50;30.20;49.40
30520;DHT22;17300;50.374;8.006;2022-08-18T10:39:21;30.20;49.20
30520;DHT22;17300;50.374;8.006;2022-08-18T10:41:59;30.10;48.90
30520;DHT22;17300;50.374;8.006;2022-08-18T10:44:27;30.00;48.60
30520;DHT22;17300;50.374;8.006;2022-08-18T10:46:57;29.90;48.60
30520;DHT22;17300;50.374;8.006;2022-08-18T10:49:26;29.70;48.30
30520;DHT22;17300;50.374;8.006;2022-08-18T10:52:07;29.60;48.40
30520;DHT22;17300;50.374;8.006;2022-08-18T10:55:08;29.50;48.40
30520;DHT22;17300;50.374;8.006;2022-08-18T10:57:55;29.20;48.50
30520;DHT22;17300;50.374;8.006;2022-08-18T11:00:38;29.10;48.50
30520;DHT22;17300;50.374;8.006;2022-08-18T11:03:10;29.00;48.80
30520;DHT22;17300;50.374;8.006;2022-08-18T11:05:39;28.70;48.80
30520;DHT22;17300;50.374;8.006;2022-08-18T11:08:11;28.60;49.00
30520;DHT22;17300;50.374;8.006;2022-08-18T11:10:42;28.50;49.10
30520;DHT22;17300;50.374;8.006;2022-08-18T11:13:18;28.40;49.20
30520;DHT22;17300;50.374;8.006;2022-08-18T11:15:56;28.40;49.40
30520;DHT22;17300;50.374;8.006;2022-08-18T11:18:30;28.30;49.70
30520;DHT22;17300;50.374;8.006;2022-08-18T11:21:21;28.20;49.70
30520;DHT22;17300;50.374;8.006;2022-08-18T11:24:01;28.10;49.80
30520;DHT22;17300;50.374;8.006;2022-08-18T11:26:30;28.10;50.00
30520;DHT22;17300;50.374;8.006;2022-08-18T11:28:59;28.10;50.00
30520;DHT22;17300;50.374;8.006;2022-08-18T11:31:26;28.10;50.10
30520;DHT22;17300;50.374;8.006;2022-08-18T11:33:53;28.00;50.40
30520;DHT22;17300;50.374;8.006;2022-08-18T11:36:28;28.00;50.30
30520;DHT22;17300;50.374;8.006;2022-08-18T11:38:56;28.00;50.30
30520;DHT22;17300;50.374;8.006;2022-08-18T11:41:26;28.00;50.30
30520;DHT22;17300;50.374;8.006;2022-08-18T11:43:57;28.00;50.30
30520;DHT22;17300;50.374;8.006;2022-08-18T11:46:28;27.90;50.20
30520;DHT22;17300;50.374;8.006;2022-08-18T11:48:56;27.90;50.10
30520;DHT22;17300;50.374;8.006;2022-08-18T11:51:25;27.80;50.10
30520;DHT22;17300;50.374;8.006;2022-08-18T11:53:55;27.80;50.10
30520;DHT22;17300;50.374;8.006;2022-08-18T11:56:25;27.80;50.10
30520;DHT22;17300;50.374;8.006;2022-08-18T11:58:54;27.70;50.10
30520;DHT22;17300;50.374;8.006;2022-08-18T12:01:47;27.60;50.10
30520;DHT22;17300;50.374;8.006;2022-08-18T12:04:20;27.60;50.50
30520;DHT22;17300;50.374;8.006;2022-08-18T12:06:58;27.50;50.50
30520;DHT22;17300;50.374;8.006;2022-08-18T12:09:31;27.60;51.50
30520;DHT22;17300;50.374;8.006;2022-08-18T12:12:01;27.70;51.20
30520;DHT22;17300;50.374;8.006;2022-08-18T12:14:30;27.80;51.50
30520;DHT22;17300;50.374;8.006;2022-08-18T12:16:59;27.90;51.50
30520;DHT22;17300;50.374;8.006;2022-08-18T12:19:26;28.10;51.30
30520;DHT22;17300;50.374;8.006;2022-08-18T12:21:57;28.20;51.10
30520;DHT22;17300;50.374;8.006;2022-08-18T12:24:25;28.40;50.90
30520;DHT22;17300;50.374;8.006;2022-08-18T12:26:53;28.50;50.90
30520;DHT22;17300;50.374;8.006;2022-08-18T12:29:20;28.60;50.70
30520;DHT22;17300;50.374;8.006;2022-08-18T12:31:48;28.80;50.70
30520;DHT22;17300;50.374;8.006;2022-08-18T12:34:18;29.00;50.80
30520;DHT22;17300;50.374;8.006;2022-08-18T12:36:45;29.10;50.50
30520;DHT22;17300;50.374;8.006;2022-08-18T12:39:12;29.30;50.50
30520;DHT22;17300;50.374;8.006;2022-08-18T12:41:39;29.50;50.40
30520;DHT22;17300;50.374;8.006;2022-08-18T12:44:05;29.70;50.40
30520;DHT22;17300;50.374;8.006;2022-08-18T12:46:32;29.90;50.10
30520;DHT22;17300;50.374;8.006;2022-08-18T12:49:00;30.10;49.60
30520;DHT22;17300;50.374;8.006;2022-08-18T12:51:29;30.40;49.30
30520;DHT22;17300;50.374;8.006;2022-08-18T12:53:56;30.60;48.90
30520;DHT22;17300;50.374;8.006;2022-08-18T12:56:25;30.70;48.40
30520;DHT22;17300;50.374;8.006;2022-08-18T12:58:55;30.80;47.90
30520;DHT22;17300;50.374;8.006;2022-08-18T13:01:23;30.90;47.60
30520;DHT22;17300;50.374;8.006;2022-08-18T13:03:50;31.00;47.30
30520;DHT22;17300;50.374;8.006;2022-08-18T13:06:20;31.10;47.30
30520;DHT22;17300;50.374;8.006;2022-08-18T13:08:48;31.10;47.00
30520;DHT22;17300;50.374;8.006;2022-08-18T13:11:15;31.10;46.80
30520;DHT22;17300;50.374;8.006;2022-08-18T13:13:43;31.10;46.70
30520;DHT22;17300;50.374;8.006;2022-08-18T13:16:10;31.20;46.70
30520;DHT22;17300;50.374;8.006;2022-08-18T13:18:39;31.20;46.60
30520;DHT22;17300;50.374;8.006;2022-08-18T13:21:08;31.30;46.70
30520;DHT22;17300;50.374;8.006;2022-08-18T13:23:35;31.40;46.60
30520;DHT22;17300;50.374;8.006;2022-08-18T13:26:06;31.40;46.50
30520;DHT22;17300;50.374;8.006;2022-08-18T13:28:35;31.50;46.10
30520;DHT22;17300;50.374;8.006;2022-08-18T13:31:03;31.60;46.10
30520;DHT22;17300;50.374;8.006;2022-08-18T13:33:29;31.60;45.90
30520;DHT22;17300;50.374;8.006;2022-08-18T13:35:57;31.70;45.80
30520;DHT22;17300;50.374;8.006;2022-08-18T13:38:24;31.60;45.60
30520;DHT22;17300;50.374;8.006;2022-08-18T14:51:05;31.00;44.40
30520;DHT22;17300;50.374;8.006;2022-08-18T14:53:35;30.80;44.20
30520;DHT22;17300;50.374;8.006;2022-08-18T14:56:03;30.80;44.50
30520;DHT22;17300;50.374;8.006;2022-08-18T14:58:31;30.80;44.70
30520;DHT22;17300;50.374;8.006;2022-08-18T15:01:00;30.80;44.70
30520;DHT22;17300;50.374;8.006;2022-08-18T15:03:29;30.70;44.60
30520;DHT22;17300;50.374;8.006;2022-08-18T15:05:56;30.80;44.70
30520;DHT22;17300;50.374;8.006;2022-08-18T15:08:26;30.70;44.60
30520;DHT22;17300;50.374;8.006;2022-08-18T15:10:53;30.70;44.50
30520;DHT22;17300;50.374;8.006;2022-08-18T15:13:20;30.70;44.60
30520;DHT22;17300;50.374;8.006;2022-08-18T15:15:47;30.70;44.30
30520;DHT22;17300;50.374;8.006;2022-08-18T15:18:14;30.60;44.30
30520;DHT22;17300;50.374;8.006;2022-08-18T15:20:41;30.60;44.40
30520;DHT22;17300;50.374;8.006;2022-08-18T15:23:21;30.50;44.40
30520;DHT22;17300;50.374;8.006;2022-08-18T15:26:07;30.50;44.50
30520;DHT22;17300;50.374;8.006;2022-08-18T15:28:34;30.50;44.50
30520;DHT22;17300;50.374;8.006;2022-08-18T15:31:02;30.50;44.50
30520;DHT22;17300;50.374;8.006;2022-08-18T15:33:29;30.40;44.50
30520;DHT22;17300;50.374;8.006;2022-08-18T15:35:57;30.40;44.40
30520;DHT22;17300;50.374;8.006;2022-08-18T15:38:25;30.40;44.40
30520;DHT22;17300;50.374;8.006;2022-08-18T15:40:54;30.40;44.20
30520;DHT22;17300;50.374;8.006;2022-08-18T15:43:24;30.40;43.90
30520;DHT22;17300;50.374;8.006;2022-08-18T15:45:51;30.40;43.80
30520;DHT22;17300;50.374;8.006;2022-08-18T15:48:21;30.40;43.70
30520;DHT22;17300;50.374;8.006;2022-08-18T15:50:49;30.30;43.30
30520;DHT22;17300;50.374;8.006;2022-08-18T15:53:17;30.20;43.30
30520;DHT22;17300;50.374;8.006;2022-08-18T15:55:45;30.20;43.30
30520;DHT22;17300;50.374;8.006;2022-08-18T15:58:12;30.10;43.20
30520;DHT22;17300;50.374;8.006;2022-08-18T16:00:42;30.10;43.20
30520;DHT22;17300;50.374;8.006;2022-08-18T16:03:11;30.00;43.10
30520;DHT22;17300;50.374;8.006;2022-08-18T16:05:43;30.00;43.10
30520;DHT22;17300;50.374;8.006;2022-08-18T16:08:11;29.90;43.10
30520;DHT22;17300;50.374;8.006;2022-08-18T16:10:40;29.90;43.30
30520;DHT22;17300;50.374;8.006;2022-08-18T16:13:07;29.80;43.40
30520;DHT22;17300;50.374;8.006;2022-08-18T16:15:36;29.80;43.50
30520;DHT22;17300;50.374;8.006;2022-08-18T16:18:06;29.70;43.50
30520;DHT22;17300;50.374;8.006;2022-08-18T16:20:35;29.80;43.60
30520;DHT22;17300;50.374;8.006;2022-08-18T16:23:02;29.70;43.90
30520;DHT22;17300;50.374;8.006;2022-08-18T16:25:30;29.70;43.80
30520;DHT22;17300;50.374;8.006;2022-08-18T16:27:57;29.70;43.80
30520;DHT22;17300;50.374;8.006;2022-08-18T16:30:26;29.70;43.80
30520;DHT22;17300;50.374;8.006;2022-08-18T16:32:53;29.70;43.70
30520;DHT22;17300;50.374;8.006;2022-08-18T16:35:21;29.70;43.70
30520;DHT22;17300;50.374;8.006;2022-08-18T16:37:48;29.70;43.70
30520;DHT22;17300;50.374;8.006;2022-08-18T16:40:17;29.70;43.70
30520;DHT22;17300;50.374;8.006;2022-08-18T16:42:44;29.70;43.60
30520;DHT22;17300;50.374;8.006;2022-08-18T16:45:12;29.70;43.60
30520;DHT22;17300;50.374;8.006;2022-08-18T16:47:39;29.60;43.50
30520;DHT22;17300;50.374;8.006;2022-08-18T16:50:07;29.60;43.50
30520;DHT22;17300;50.374;8.006;2022-08-18T16:52:36;29.60;43.50
30520;DHT22;17300;50.374;8.006;2022-08-18T16:55:04;29.50;43.40
30520;DHT22;17300;50.374;8.006;2022-08-18T16:57:31;29.50;44.00
30520;DHT22;17300;50.374;8.006;2022-08-18T17:00:16;29.40;43.30
30520;DHT22;17300;50.374;8.006;2022-08-18T17:03:03;29.40;43.30
30520;DHT22;17300;50.374;8.006;2022-08-18T17:05:47;29.30;43.30
30520;DHT22;17300;50.374;8.006;2022-08-18T17:08:15;29.30;43.40
30520;DHT22;17300;50.374;8.006;2022-08-18T17:10:42;29.20;43.40
30520;DHT22;17300;50.374;8.006;2022-08-18T17:13:09;29.10;43.60
30520;DHT22;17300;50.374;8.006;2022-08-18T17:15:35;29.10;43.60
30520;DHT22;17300;50.374;8.006;2022-08-18T17:18:02;29.10;43.60